createdAt,value
2017-09-28T00:01:59.063Z,26.97
2017-09-28T00:04:26.642Z,25.10
2017-09-28T00:06:54.427Z,29.33
2017-09-28T00:09:22.041Z,28.17
2017-09-28T00:11:49.551Z,27.23
2017-09-28T00:14:17.111Z,25.70
2017-09-28T00:16:44.730Z,28.10
2017-09-28T00:19:12.336Z,29.30
2017-09-28T00:21:39.893Z,28.37
2017-09-28T00:24:07.391Z,29.20
2017-09-28T00:26:34.946Z,28.77
2017-09-28T00:29:02.507Z,33.17
2017-09-28T00:31:30.018Z,32.90
2017-09-28T00:33:57.533Z,34.77
2017-09-28T00:36:25.146Z,30.67
2017-09-28T00:38:52.671Z,30.93
2017-09-28T00:41:20.185Z,33.37
2017-09-28T00:43:47.792Z,30.67
2017-09-28T00:46:15.333Z,31.60
2017-09-28T00:48:42.850Z,32.50
2017-09-28T00:51:10.742Z,32.43
2017-09-28T00:53:38.256Z,26.70
2017-09-28T00:56:05.771Z,27.40
2017-09-28T00:58:33.654Z,23.00
2017-09-28T01:01:01.167Z,28.10
2017-09-28T01:03:28.679Z,27.63
2017-09-28T01:05:56.307Z,31.10
2017-09-28T01:08:23.806Z,27.60
2017-09-28T01:10:51.355Z,27.70
2017-09-28T01:13:18.973Z,29.90
2017-09-28T01:15:46.590Z,29.20
2017-09-28T01:18:14.103Z,27.07
2017-09-28T01:20:42.557Z,25.20
2017-09-28T01:23:10.319Z,27.20
2017-09-28T01:25:37.831Z,30.40
2017-09-28T01:28:06.147Z,33.67
2017-09-28T01:30:33.662Z,33.00
2017-09-28T01:33:01.185Z,33.33
2017-09-28T01:35:28.812Z,31.90
2017-09-28T01:37:56.347Z,28.70
2017-09-28T01:40:24.715Z,29.37
2017-09-28T01:42:52.311Z,29.30
2017-09-28T01:45:19.846Z,29.30
2017-09-28T01:47:47.354Z,31.40
2017-09-28T01:50:14.912Z,31.40
2017-09-28T01:52:42.440Z,31.60
2017-09-28T01:55:09.983Z,32.10
2017-09-28T01:57:37.684Z,33.37
2017-09-28T02:00:05.270Z,34.37
2017-09-28T02:02:32.786Z,34.97
2017-09-28T02:05:00.338Z,33.20
2017-09-28T02:07:28.004Z,30.70
2017-09-28T02:09:55.980Z,31.00
2017-09-28T02:12:23.570Z,32.23
2017-09-28T02:14:51.084Z,28.43
2017-09-28T02:17:18.621Z,28.20
2017-09-28T02:19:46.223Z,30.40
2017-09-28T02:22:13.731Z,29.63
2017-09-28T02:24:42.025Z,33.60
2017-09-28T02:27:10.157Z,34.10
2017-09-28T02:29:38.359Z,27.10
2017-09-28T02:32:05.868Z,30.10
2017-09-28T02:34:33.469Z,34.80
2017-09-28T02:37:00.979Z,36.80
2017-09-28T02:39:28.562Z,36.27
2017-09-28T02:41:56.186Z,40.87
2017-09-28T02:44:23.695Z,38.97
2017-09-28T02:46:51.207Z,34.17
2017-09-28T02:49:18.934Z,30.63
2017-09-28T02:51:46.198Z,31.33
2017-09-28T02:54:14.467Z,31.90
2017-09-28T02:56:42.055Z,32.40
2017-09-28T02:59:09.561Z,31.83
2017-09-28T03:01:37.074Z,32.40
2017-09-28T03:04:05.820Z,32.97
2017-09-28T03:06:33.630Z,29.90
2017-09-28T03:09:01.148Z,25.30
2017-09-28T03:11:28.783Z,31.67
2017-09-28T03:13:56.438Z,36.90
2017-09-28T03:16:24.035Z,32.73
2017-09-28T03:18:51.954Z,29.57
2017-09-28T03:21:19.574Z,29.67
2017-09-28T03:23:47.083Z,28.60
2017-09-28T03:26:14.927Z,25.80
2017-09-28T03:28:42.439Z,25.23
2017-09-28T03:31:09.935Z,23.13
2017-09-28T03:33:37.503Z,24.67
2017-09-28T03:36:05.109Z,25.93
2017-09-28T03:38:32.908Z,22.77
2017-09-28T03:41:00.514Z,23.97
2017-09-28T03:43:28.022Z,25.00
2017-09-28T03:45:55.553Z,28.30
2017-09-28T03:48:23.239Z,31.00
2017-09-28T03:50:50.758Z,25.83
2017-09-28T03:53:18.072Z,28.87
2017-09-28T03:55:45.927Z,25.73
2017-09-28T03:58:13.474Z,25.63
2017-09-28T04:00:41.095Z,26.50
2017-09-28T04:03:08.901Z,25.87
2017-09-28T04:05:36.442Z,29.87
2017-09-28T04:08:03.953Z,28.47
2017-09-28T04:10:31.851Z,26.50
2017-09-28T04:12:59.387Z,21.67
2017-09-28T04:15:26.920Z,25.17
2017-09-28T04:17:54.503Z,25.27
2017-09-28T04:20:22.011Z,24.27
2017-09-28T04:22:49.530Z,24.70
2017-09-28T04:25:17.083Z,22.17
2017-09-28T04:27:44.799Z,33.70
2017-09-28T04:30:12.572Z,25.80
2017-09-28T04:32:40.126Z,23.23
2017-09-28T04:35:07.631Z,26.83
2017-09-28T04:37:35.159Z,26.30
2017-09-28T04:40:02.726Z,27.30
2017-09-28T04:42:31.091Z,26.33
2017-09-28T04:44:59.226Z,27.70
2017-09-28T04:47:26.783Z,26.07
2017-09-28T04:49:54.303Z,25.87
2017-09-28T04:52:21.822Z,26.80
2017-09-28T04:54:49.131Z,26.23
2017-09-28T04:57:16.687Z,26.50
2017-09-28T04:59:44.470Z,26.03
2017-09-28T05:02:12.320Z,27.20
2017-09-28T05:04:39.862Z,25.57
2017-09-28T05:07:07.387Z,24.60
2017-09-28T05:09:35.926Z,21.37
2017-09-28T05:12:03.463Z,20.57
2017-09-28T05:14:31.114Z,21.90
2017-09-28T05:16:59.083Z,21.20
2017-09-28T05:19:27.226Z,19.83
2017-09-28T05:21:54.734Z,20.80
2017-09-28T05:24:22.615Z,19.70
2017-09-28T05:26:50.159Z,21.57
2017-09-28T05:29:18.754Z,22.90
2017-09-28T05:31:46.618Z,21.40
2017-09-28T05:34:14.292Z,20.47
2017-09-28T05:36:42.034Z,22.63
2017-09-28T05:39:10.616Z,22.57
2017-09-28T05:41:38.267Z,20.67
2017-09-28T05:44:06.002Z,20.47
2017-09-28T05:46:37.016Z,19.40
2017-09-28T05:49:04.591Z,21.13
2017-09-28T05:51:32.134Z,19.27
2017-09-28T05:54:00.294Z,17.80
2017-09-28T05:56:28.163Z,18.60
2017-09-28T05:58:55.680Z,19.30
2017-09-28T06:01:23.803Z,20.43
2017-09-28T06:03:51.318Z,16.30
2017-09-28T06:06:18.827Z,17.73
2017-09-28T06:08:46.403Z,17.00
2017-09-28T06:11:13.982Z,18.10
2017-09-28T06:13:41.503Z,19.77
2017-09-28T06:16:09.439Z,19.03
2017-09-28T06:18:36.946Z,18.63
2017-09-28T06:21:04.788Z,18.30
2017-09-28T06:23:32.344Z,17.33
2017-09-28T06:25:59.876Z,18.57
2017-09-28T06:28:27.379Z,19.43
2017-09-28T06:30:55.737Z,18.67
2017-09-28T06:33:23.322Z,16.07
2017-09-28T06:35:51.042Z,16.97
2017-09-28T06:38:19.801Z,16.80
2017-09-28T06:40:47.311Z,16.43
2017-09-28T06:43:14.817Z,17.60
2017-09-28T06:45:42.410Z,18.57
2017-09-28T06:48:10.255Z,17.77
2017-09-28T06:50:37.775Z,16.70
2017-09-28T06:53:05.618Z,16.53
2017-09-28T06:55:33.639Z,16.70
2017-09-28T06:58:01.348Z,16.37
2017-09-28T07:00:29.266Z,16.50
2017-09-28T07:02:56.859Z,17.10
2017-09-28T07:05:24.404Z,18.93
2017-09-28T07:07:52.194Z,17.03
2017-09-28T07:10:19.768Z,17.53
2017-09-28T07:12:47.278Z,15.37
2017-09-28T07:15:14.858Z,16.83
2017-09-28T07:17:43.125Z,15.47
2017-09-28T07:20:10.651Z,16.43
2017-09-28T07:22:38.989Z,14.10
2017-09-28T07:25:06.833Z,15.40
2017-09-28T07:27:34.911Z,14.10
2017-09-28T07:30:02.907Z,15.10
2017-09-28T07:32:30.479Z,16.13
2017-09-28T07:34:58.063Z,15.63
2017-09-28T07:37:25.712Z,16.10
2017-09-28T07:39:53.258Z,15.30
2017-09-28T07:42:20.791Z,16.10
2017-09-28T07:44:49.110Z,16.00
2017-09-28T07:47:16.606Z,17.40
2017-09-28T07:49:44.446Z,15.63
2017-09-28T07:52:12.679Z,18.63
2017-09-28T07:54:40.207Z,17.50
2017-09-28T07:57:08.214Z,18.10
2017-09-28T07:59:37.037Z,19.10
2017-09-28T08:02:04.646Z,18.60
2017-09-28T08:04:32.226Z,17.20
2017-09-28T08:07:00.105Z,18.70
2017-09-28T08:09:27.606Z,18.00
2017-09-28T08:11:55.110Z,16.63
2017-09-28T08:14:23.048Z,18.90
2017-09-28T08:16:50.702Z,17.87
2017-09-28T08:19:18.849Z,16.63
2017-09-28T08:21:46.414Z,18.80
2017-09-28T08:24:14.028Z,17.20
2017-09-28T08:26:41.771Z,17.60
2017-09-28T08:29:10.696Z,17.53
2017-09-28T08:31:38.501Z,15.17
2017-09-28T08:34:06.002Z,16.80
2017-09-28T08:36:34.649Z,17.60
2017-09-28T08:39:02.239Z,18.33
2017-09-28T08:41:30.232Z,17.20
2017-09-28T08:43:57.856Z,17.07
2017-09-28T08:46:25.600Z,17.50
2017-09-28T08:48:53.478Z,19.03
2017-09-28T08:51:21.430Z,20.00
2017-09-28T08:53:49.434Z,16.70
2017-09-28T08:56:16.933Z,19.60
2017-09-28T08:58:45.943Z,15.57
2017-09-28T09:01:13.945Z,17.57
2017-09-28T09:03:42.484Z,17.50
2017-09-28T09:06:10.419Z,16.73
2017-09-28T09:08:38.056Z,18.50
2017-09-28T09:11:05.907Z,16.70
2017-09-28T09:13:33.815Z,14.87
2017-09-28T09:16:01.359Z,16.53
2017-09-28T09:18:29.320Z,17.73
2017-09-28T09:20:57.258Z,18.30
2017-09-28T09:23:24.849Z,16.67
2017-09-28T09:25:53.103Z,16.30
2017-09-28T09:28:21.003Z,16.30
2017-09-28T09:30:49.048Z,14.90
2017-09-28T09:33:16.763Z,16.60
2017-09-28T09:35:44.694Z,17.20
2017-09-28T09:38:12.190Z,16.90
2017-09-28T09:40:40.968Z,16.13
2017-09-28T09:43:08.543Z,17.00
2017-09-28T09:45:36.946Z,15.73
2017-09-28T09:48:04.482Z,16.80
2017-09-28T09:50:32.970Z,17.87
2017-09-28T09:53:01.734Z,16.70
2017-09-28T09:55:29.235Z,16.20
2017-09-28T09:57:57.103Z,14.77
2017-09-28T10:00:24.614Z,15.60
2017-09-28T10:02:53.037Z,13.03
2017-09-28T10:05:20.643Z,14.70
2017-09-28T10:07:49.657Z,13.60
2017-09-28T10:10:22.895Z,14.20
2017-09-28T10:12:55.626Z,14.60
2017-09-28T10:15:26.966Z,14.27
2017-09-28T10:17:54.466Z,14.87
2017-09-28T10:20:21.992Z,15.33
2017-09-28T10:22:49.626Z,15.23
2017-09-28T10:25:17.149Z,14.57
2017-09-28T10:27:44.676Z,14.30
2017-09-28T10:30:13.164Z,13.13
2017-09-28T10:32:41.474Z,14.40
2017-09-28T10:35:15.008Z,14.30
2017-09-28T10:37:42.801Z,15.03
2017-09-28T10:40:10.346Z,13.50
2017-09-28T10:42:38.266Z,14.90
2017-09-28T10:45:05.997Z,14.07
2017-09-28T10:47:33.518Z,14.80
2017-09-28T10:50:01.079Z,14.13
2017-09-28T10:52:28.648Z,12.70
2017-09-28T10:54:56.851Z,13.10
2017-09-28T10:57:24.411Z,13.70
2017-09-28T10:59:52.729Z,12.40
2017-09-28T11:02:20.423Z,14.70
2017-09-28T11:04:48.051Z,12.37
2017-09-28T11:07:15.575Z,13.17
2017-09-28T11:09:43.158Z,13.37
2017-09-28T11:12:11.003Z,14.40
2017-09-28T11:14:39.274Z,13.40
2017-09-28T11:17:07.583Z,14.57
2017-09-28T11:19:35.163Z,12.70
2017-09-28T11:22:02.683Z,13.33
2017-09-28T11:24:30.296Z,12.30
2017-09-28T11:26:58.252Z,11.60
2017-09-28T11:29:25.840Z,11.40
2017-09-28T11:31:53.351Z,12.73
2017-09-28T11:34:21.206Z,11.93
2017-09-28T11:36:48.714Z,11.20
2017-09-28T11:39:16.267Z,10.13
2017-09-28T11:41:44.246Z,10.70
2017-09-28T11:44:11.819Z,12.47
2017-09-28T11:46:39.378Z,12.00
2017-09-28T11:49:07.088Z,12.30
2017-09-28T11:51:34.639Z,12.97
2017-09-28T11:54:02.199Z,12.10
2017-09-28T11:56:30.100Z,12.60
2017-09-28T11:58:57.683Z,12.80
2017-09-28T12:01:25.232Z,12.63
2017-09-28T12:03:52.899Z,12.07
2017-09-28T12:06:20.426Z,12.53
2017-09-28T12:08:47.983Z,12.70
2017-09-28T12:11:15.743Z,10.97
2017-09-28T12:13:43.258Z,11.03
2017-09-28T12:16:10.765Z,12.27
2017-09-28T12:18:38.678Z,11.30
2017-09-28T12:21:06.238Z,12.10
2017-09-28T12:23:33.840Z,11.13
2017-09-28T12:26:01.715Z,9.93
2017-09-28T12:28:29.230Z,11.27
2017-09-28T12:30:56.834Z,9.33
2017-09-28T12:33:24.479Z,10.53
2017-09-28T12:35:52.752Z,10.00
2017-09-28T12:38:20.318Z,9.03
2017-09-28T12:40:47.864Z,10.00
2017-09-28T12:43:15.411Z,10.13
2017-09-28T12:45:42.973Z,9.70
2017-09-28T12:48:12.162Z,9.80
2017-09-28T12:50:39.664Z,9.20
2017-09-28T12:53:07.170Z,10.07
2017-09-28T12:55:35.122Z,10.80
2017-09-28T12:58:02.632Z,10.50
2017-09-28T13:00:30.159Z,9.90
2017-09-28T13:02:58.610Z,10.37
2017-09-28T13:05:26.114Z,11.23
2017-09-28T13:07:54.378Z,9.43
2017-09-28T13:10:22.175Z,9.57
2017-09-28T13:12:49.691Z,9.53
2017-09-28T13:15:17.238Z,9.90
2017-09-28T13:17:44.810Z,11.20
2017-09-28T13:20:12.338Z,10.57
2017-09-28T13:22:39.850Z,10.03
2017-09-28T13:25:07.406Z,9.00
2017-09-28T13:27:35.095Z,10.17
2017-09-28T13:30:02.599Z,9.83
2017-09-28T13:32:30.299Z,9.50
2017-09-28T13:34:57.866Z,9.77
2017-09-28T13:37:26.887Z,10.00
2017-09-28T13:39:54.800Z,10.10
2017-09-28T13:42:22.306Z,9.57
2017-09-28T13:44:49.818Z,10.13
2017-09-28T13:47:17.415Z,9.23
2017-09-28T13:49:44.923Z,9.57
2017-09-28T13:52:12.419Z,9.40
2017-09-28T13:54:40.191Z,10.43
2017-09-28T13:57:07.699Z,8.77
2017-09-28T13:59:35.290Z,8.20
2017-09-28T14:02:03.198Z,7.83
2017-09-28T14:04:30.723Z,7.40
2017-09-28T14:06:58.234Z,8.23
2017-09-28T14:09:26.335Z,8.20
2017-09-28T14:11:53.899Z,7.80
2017-09-28T14:14:22.170Z,7.80
2017-09-28T14:16:49.802Z,8.00
2017-09-28T14:19:17.389Z,8.20
2017-09-28T14:21:44.953Z,8.00
2017-09-28T14:24:12.784Z,8.07
2017-09-28T14:26:40.294Z,8.20
2017-09-28T14:29:07.810Z,8.07
2017-09-28T14:31:35.623Z,8.67
2017-09-28T14:34:03.148Z,8.37
2017-09-28T14:36:30.648Z,8.13
2017-09-28T14:38:58.347Z,8.50
2017-09-28T14:41:25.863Z,8.63
2017-09-28T14:43:53.363Z,7.80
2017-09-28T14:46:20.915Z,9.20
2017-09-28T14:48:48.507Z,9.30
2017-09-28T14:51:16.071Z,8.50
2017-09-28T14:53:43.635Z,8.80
2017-09-28T14:56:11.151Z,9.07
2017-09-28T14:58:38.647Z,8.80
2017-09-28T15:01:06.263Z,8.27
2017-09-28T15:03:33.815Z,9.93
2017-09-28T15:06:01.322Z,8.57
2017-09-28T15:08:28.879Z,8.03
2017-09-28T15:10:56.532Z,8.40
2017-09-28T15:13:24.091Z,8.90
2017-09-28T15:15:51.639Z,7.77
2017-09-28T15:18:19.152Z,8.07
2017-09-28T15:20:46.750Z,8.87
2017-09-28T15:23:14.646Z,8.87
2017-09-28T15:25:42.179Z,9.20
2017-09-28T15:28:09.707Z,8.90
2017-09-28T15:30:38.301Z,9.00
2017-09-28T15:33:06.403Z,7.23
2017-09-28T15:35:33.986Z,11.60
2017-09-28T15:38:01.562Z,16.37
2017-09-28T15:40:29.334Z,13.20
2017-09-28T15:42:56.855Z,14.47
2017-09-28T15:45:24.746Z,15.47
2017-09-28T15:47:53.004Z,18.30
2017-09-28T15:50:20.525Z,20.57
2017-09-28T15:52:49.035Z,15.20
2017-09-28T15:55:16.562Z,11.67
2017-09-28T15:57:44.431Z,11.73
2017-09-28T16:00:12.018Z,9.97
2017-09-28T16:02:39.675Z,9.87
2017-09-28T16:05:07.210Z,11.33
2017-09-28T16:07:35.044Z,10.80
2017-09-28T16:10:02.547Z,12.23
2017-09-28T16:12:30.365Z,13.27
2017-09-28T16:14:58.215Z,11.33
2017-09-28T16:17:25.718Z,11.03
2017-09-28T16:19:53.222Z,11.57
2017-09-28T16:22:21.076Z,11.40
2017-09-28T16:24:48.727Z,12.43
2017-09-28T16:27:16.339Z,11.40
2017-09-28T16:29:44.003Z,11.80
2017-09-28T16:32:12.003Z,11.97
2017-09-28T16:34:40.496Z,11.07
2017-09-28T16:37:08.320Z,12.90
2017-09-28T16:39:35.848Z,11.90
2017-09-28T16:42:03.400Z,10.50
2017-09-28T16:44:31.014Z,13.73
2017-09-28T16:46:59.299Z,11.27
2017-09-28T16:49:26.811Z,10.13
2017-09-28T16:51:54.381Z,11.67
2017-09-28T16:54:22.585Z,12.13
2017-09-28T16:56:50.289Z,10.70
2017-09-28T16:59:17.842Z,10.43
2017-09-28T17:01:45.455Z,10.03
2017-09-28T17:04:12.970Z,9.33
2017-09-28T17:06:40.897Z,10.00
2017-09-28T17:09:08.497Z,9.93
2017-09-28T17:11:35.976Z,10.90
2017-09-28T17:14:03.943Z,10.73
2017-09-28T17:16:31.655Z,9.57
2017-09-28T17:18:59.183Z,10.47
2017-09-28T17:21:27.048Z,10.97
2017-09-28T17:23:55.067Z,12.33
2017-09-28T17:26:22.639Z,11.97
2017-09-28T17:28:50.564Z,12.40
2017-09-28T17:31:18.128Z,11.93
2017-09-28T17:33:45.639Z,12.30
2017-09-28T17:36:13.192Z,10.80
2017-09-28T17:38:40.728Z,12.30
2017-09-28T17:41:09.112Z,12.43
2017-09-28T17:43:36.662Z,11.30
2017-09-28T17:46:04.995Z,12.13
2017-09-28T17:48:32.692Z,12.77
2017-09-28T17:51:00.562Z,12.57
2017-09-28T17:53:28.078Z,12.50
2017-09-28T17:55:55.602Z,14.00
2017-09-28T17:58:23.216Z,14.60
2017-09-28T18:00:50.793Z,13.00
2017-09-28T18:03:18.343Z,19.33
2017-09-28T18:05:46.194Z,19.67
2017-09-28T18:08:13.899Z,20.83
2017-09-28T18:10:42.287Z,63.53
2017-09-28T18:13:09.863Z,15.93
2017-09-28T18:15:37.363Z,15.60
2017-09-28T18:18:04.871Z,15.30
2017-09-28T18:20:32.454Z,13.87
2017-09-28T18:23:00.095Z,13.80
2017-09-28T18:25:28.406Z,14.27
2017-09-28T18:27:56.132Z,14.27
2017-09-28T18:30:23.648Z,14.93
2017-09-28T18:32:52.264Z,14.90
2017-09-28T18:35:20.590Z,14.50
2017-09-28T18:37:48.095Z,13.37
2017-09-28T18:40:16.755Z,13.37
2017-09-28T18:42:44.275Z,13.20
2017-09-28T18:45:11.827Z,14.73
2017-09-28T18:47:39.586Z,17.27
2017-09-28T18:50:07.787Z,34.67
2017-09-28T18:52:35.347Z,14.83
2017-09-28T18:55:03.166Z,19.47
2017-09-28T18:57:31.479Z,18.10
2017-09-28T18:59:58.999Z,20.50
2017-09-28T19:02:26.802Z,16.27
2017-09-28T19:04:54.402Z,22.20
2017-09-28T19:07:22.024Z,18.63
2017-09-28T19:09:49.881Z,16.60
2017-09-28T19:12:17.394Z,16.10
2017-09-28T19:14:44.913Z,14.93
2017-09-28T19:17:12.872Z,16.23
2017-09-28T19:19:40.440Z,14.17
2017-09-28T19:22:08.051Z,16.30
2017-09-28T19:24:35.701Z,14.57
2017-09-28T19:27:03.267Z,14.07
2017-09-28T19:29:30.854Z,31.10
2017-09-28T19:31:59.567Z,18.30
2017-09-28T19:34:27.300Z,15.63
2017-09-28T19:36:54.827Z,16.43
2017-09-28T19:39:23.010Z,14.30
2017-09-28T19:41:50.560Z,16.03
2017-09-28T19:44:18.064Z,14.50
2017-09-28T19:46:46.713Z,14.57
2017-09-28T19:49:14.449Z,15.77
2017-09-28T19:51:41.995Z,15.10
2017-09-28T19:54:09.584Z,16.40
2017-09-28T19:56:37.279Z,16.10
2017-09-28T19:59:04.866Z,16.57
2017-09-28T20:01:32.588Z,15.40
2017-09-28T20:04:00.172Z,14.67
2017-09-28T20:06:28.696Z,14.80
2017-09-28T20:08:56.869Z,14.60
2017-09-28T20:11:24.450Z,15.57
2017-09-28T20:13:52.394Z,16.77
2017-09-28T20:16:19.964Z,17.27
2017-09-28T20:18:47.554Z,15.87
2017-09-28T20:21:15.562Z,17.13
2017-09-28T20:23:43.130Z,14.40
2017-09-28T20:26:10.635Z,17.67
2017-09-28T20:28:39.143Z,15.40
2017-09-28T20:31:06.663Z,13.93
2017-09-28T20:33:34.216Z,16.13
2017-09-28T20:36:01.854Z,14.87
2017-09-28T20:38:29.442Z,15.07
2017-09-28T20:40:56.947Z,13.50
2017-09-28T20:43:25.272Z,14.00
2017-09-28T20:45:52.775Z,14.10
2017-09-28T20:48:20.398Z,14.80
2017-09-28T20:50:47.979Z,15.00
2017-09-28T20:53:15.972Z,15.60
2017-09-28T20:55:43.523Z,12.60
2017-09-28T20:58:11.259Z,14.23
2017-09-28T21:00:38.940Z,13.63
2017-09-28T21:03:06.453Z,13.40
2017-09-28T21:05:34.260Z,13.10
2017-09-28T21:08:01.826Z,13.77
2017-09-28T21:10:29.616Z,14.17
2017-09-28T21:12:57.274Z,12.93
2017-09-28T21:15:25.286Z,13.37
2017-09-28T21:17:52.832Z,14.60
2017-09-28T21:20:20.366Z,12.67
2017-09-28T21:22:48.751Z,14.73
2017-09-28T21:25:16.466Z,14.50
2017-09-28T21:27:43.970Z,13.10
2017-09-28T21:30:11.323Z,14.77
2017-09-28T21:32:38.827Z,13.80
2017-09-28T21:35:06.560Z,12.93
2017-09-28T21:37:34.110Z,14.53
2017-09-28T21:40:01.642Z,13.60
2017-09-28T21:42:29.152Z,14.43
2017-09-28T21:44:56.704Z,14.07
2017-09-28T22:31:03.479Z,17.07
2017-09-28T22:33:31.121Z,17.00
2017-09-28T22:35:59.479Z,16.97
2017-09-28T22:38:27.087Z,17.27
2017-09-28T22:40:54.586Z,16.93
2017-09-28T22:43:22.095Z,17.93
2017-09-28T22:45:50.019Z,16.53
2017-09-28T22:48:17.519Z,15.30
2017-09-28T22:50:45.026Z,18.40
2017-09-28T22:53:12.922Z,18.17
2017-09-28T22:55:40.430Z,17.60
2017-09-28T22:58:07.955Z,17.13
2017-09-28T23:00:35.593Z,16.60
2017-09-28T23:03:03.095Z,17.83
2017-09-28T23:05:30.599Z,16.13
2017-09-28T23:07:58.238Z,16.87
2017-09-28T23:10:25.890Z,18.30
2017-09-28T23:12:53.391Z,17.60
2017-09-28T23:15:20.987Z,20.70
2017-09-28T23:17:48.514Z,19.10
2017-09-28T23:20:16.045Z,17.70
2017-09-28T23:22:43.600Z,21.03
2017-09-28T23:25:11.151Z,17.47
2017-09-28T23:27:38.657Z,18.73
2017-09-28T23:30:07.370Z,19.47
2017-09-28T23:32:34.887Z,17.97
2017-09-28T23:35:02.772Z,19.37
2017-09-28T23:37:30.578Z,17.63
2017-09-28T23:39:58.217Z,20.30
2017-09-28T23:42:25.727Z,20.53
2017-09-28T23:44:53.329Z,18.97
2017-09-28T23:47:21.599Z,19.10
2017-09-28T23:49:49.883Z,20.33
2017-09-28T23:52:18.191Z,22.00
2017-09-28T23:54:45.709Z,20.47
2017-09-28T23:57:13.370Z,20.03
2017-09-28T23:59:40.939Z,20.23
